Time;durP1;ratioP1;P1;durP2;ratioP2;P2;SDS_P1;SDS_P2;PMS_P1;PMS_P2;Temp;Humidity;BMP_temperature;BMP_pressure;BME280_temperature;BME280_humidity;BME280_pressure;Samples;Min_cycle;Max_cycle;Signal;HPM_P1;HPM_P2
2023/07/19 00:01:33;;;;;;;2.47;1.10;;;;;;;;;;5104259;27;43203;-71
2023/07/19 00:04:01;;;;;;;2.17;1.30;;;;;;;;;;5108416;27;40331;-71
2023/07/19 00:06:29;;;;;;;1.10;1.00;;;;;;;;;;5106836;28;41811;-71
2023/07/19 00:08:58;;;;;;;1.33;1.08;;;;;;;;;;5109663;27;42218;-71
2023/07/19 00:11:26;;;;;;;1.73;1.10;;;;;;;;;;5108244;27;40471;-71
2023/07/19 00:13:54;;;;;;;2.22;1.10;;;;;;;;;;5108814;27;41257;-71
2023/07/19 00:16:22;;;;;;;1.50;1.13;;;;;;;;;;5109131;27;42769;-72
2023/07/19 00:18:50;;;;;;;1.50;0.98;;;;;;;;;;5108869;27;40232;-72
2023/07/19 00:21:20;;;;;;;6.88;1.30;;;;;;;;;;5089106;28;41019;-71
2023/07/19 00:23:49;;;;;;;1.83;1.33;;;;;;;;;;5109466;27;40854;-71
2023/07/19 00:26:18;;;;;;;3.30;1.30;;;;;;;;;;5108829;27;41842;-71
2023/07/19 00:28:46;;;;;;;1.90;1.00;;;;;;;;;;5109118;27;42726;-71
2023/07/19 00:31:14;;;;;;;1.63;1.23;;;;;;;;;;5109289;28;40097;-71
2023/07/19 00:33:42;;;;;;;1.95;1.20;;;;;;;;;;5123819;27;41182;-71
2023/07/19 00:36:10;;;;;;;1.23;0.90;;;;;;;;;;5107580;28;41795;-71
2023/07/19 00:38:38;;;;;;;2.38;1.13;;;;;;;;;;5108534;28;40397;-71
2023/07/19 00:41:08;;;;;;;2.28;1.20;;;;;;;;;;5109024;27;41013;-71
2023/07/19 00:43:38;;;;;;;2.00;1.10;;;;;;;;;;5123769;27;39760;-71
2023/07/19 00:46:06;;;;;;;2.85;1.00;;;;;;;;;;5109512;28;42628;-71
2023/07/19 00:48:34;;;;;;;1.10;0.90;;;;;;;;;;5107766;27;42211;-71
2023/07/19 00:51:02;;;;;;;2.28;1.05;;;;;;;;;;5116191;27;40318;-71
2023/07/19 00:53:30;;;;;;;1.00;0.90;;;;;;;;;;5105014;28;42576;-71
2023/07/19 00:55:58;;;;;;;1.48;0.93;;;;;;;;;;5124500;27;40904;-71
2023/07/19 00:58:26;;;;;;;2.50;0.90;;;;;;;;;;5108714;28;41336;-71
2023/07/19 01:00:55;;;;;;;2.45;1.20;;;;;;;;;;5108788;28;43183;-71
2023/07/19 01:03:23;;;;;;;1.33;1.08;;;;;;;;;;5122841;27;41440;-71
2023/07/19 01:05:52;;;;;;;2.92;0.98;;;;;;;;;;5107549;28;42272;-71
2023/07/19 01:08:20;;;;;;;2.85;1.15;;;;;;;;;;5107731;28;41970;-71
2023/07/19 01:10:48;;;;;;;1.52;0.93;;;;;;;;;;5105180;28;40351;-71
2023/07/19 01:13:18;;;;;;;2.53;1.27;;;;;;;;;;5102770;28;41874;-71
2023/07/19 01:15:46;;;;;;;2.00;1.08;;;;;;;;;;5106657;28;41409;-71
2023/07/19 01:18:18;;;;;;;1.83;1.02;;;;;;;;;;5108325;27;39933;-71
2023/07/19 01:20:46;;;;;;;4.25;1.23;;;;;;;;;;5107261;27;40994;-71
2023/07/19 01:23:15;;;;;;;3.10;1.30;;;;;;;;;;5107593;27;43129;-71
2023/07/19 01:25:43;;;;;;;2.20;0.98;;;;;;;;;;5107231;28;38892;-71
2023/07/19 01:28:11;;;;;;;2.53;1.08;;;;;;;;;;5108388;28;42775;-71
2023/07/19 01:30:39;;;;;;;1.20;0.93;;;;;;;;;;5106623;28;42306;-71
2023/07/19 01:33:07;;;;;;;2.47;1.05;;;;;;;;;;5106882;28;40100;-70
2023/07/19 01:35:50;;;;;;;1.98;1.10;;;;;;;;;;5106752;28;43061;-70
2023/07/19 01:38:20;;;;;;;1.27;1.00;;;;;;;;;;5107822;28;40262;-70
2023/07/19 01:40:48;;;;;;;1.85;1.20;;;;;;;;;;5108351;28;41826;-70
2023/07/19 01:43:16;;;;;;;1.70;0.98;;;;;;;;;;5106085;28;40845;-70
2023/07/19 01:45:44;;;;;;;1.35;1.00;;;;;;;;;;5108054;28;41377;-70
2023/07/19 01:48:13;;;;;;;1.10;0.85;;;;;;;;;;5108873;28;42514;-71
2023/07/19 01:50:41;;;;;;;3.47;1.08;;;;;;;;;;5105671;28;40054;-70
2023/07/19 01:53:09;;;;;;;1.83;1.08;;;;;;;;;;5106068;28;40410;-70
2023/07/19 01:55:39;;;;;;;2.65;0.77;;;;;;;;;;5107327;28;42695;-70
2023/07/19 01:58:07;;;;;;;1.88;1.17;;;;;;;;;;5122840;27;39005;-70
2023/07/19 02:00:35;;;;;;;1.90;1.00;;;;;;;;;;5105686;28;40250;-70
2023/07/19 02:03:03;;;;;;;1.95;1.00;;;;;;;;;;5107812;28;42239;-70
2023/07/19 02:05:31;;;;;;;1.00;0.85;;;;;;;;;;5106683;28;41486;-70
2023/07/19 02:07:59;;;;;;;1.02;0.82;;;;;;;;;;5108252;28;41718;-70
2023/07/19 02:10:27;;;;;;;1.15;0.80;;;;;;;;;;5107809;28;42152;-70
2023/07/19 02:12:57;;;;;;;0.88;0.77;;;;;;;;;;5107038;28;41425;-70
2023/07/19 02:15:25;;;;;;;3.20;1.30;;;;;;;;;;5105690;28;41784;-70
2023/07/19 02:17:53;;;;;;;1.13;0.80;;;;;;;;;;5107224;28;39224;-70
2023/07/19 02:20:21;;;;;;;1.73;1.30;;;;;;;;;;5105983;28;42568;-70
2023/07/19 02:22:49;;;;;;;1.00;0.90;;;;;;;;;;5090001;28;41855;-70
2023/07/19 02:25:17;;;;;;;1.25;0.90;;;;;;;;;;5086582;28;40439;-70
2023/07/19 02:27:45;;;;;;;1.95;0.90;;;;;;;;;;5087180;28;42511;-70
2023/07/19 02:30:14;;;;;;;1.83;1.10;;;;;;;;;;5086849;28;43069;-70
2023/07/19 02:32:42;;;;;;;1.10;0.75;;;;;;;;;;5097550;28;41763;-70
2023/07/19 02:35:10;;;;;;;1.98;0.95;;;;;;;;;;5111081;28;43159;-70
2023/07/19 02:37:38;;;;;;;2.30;0.95;;;;;;;;;;5110914;27;39887;-70
2023/07/19 02:40:07;;;;;;;1.23;0.90;;;;;;;;;;5108648;28;41616;-70
2023/07/19 02:42:35;;;;;;;2.63;0.90;;;;;;;;;;5099660;28;41948;-70
2023/07/19 02:45:04;;;;;;;1.00;0.90;;;;;;;;;;5106444;28;41648;-70
2023/07/19 02:47:33;;;;;;;2.05;1.00;;;;;;;;;;5104689;28;41585;-70
2023/07/19 02:50:01;;;;;;;1.30;0.85;;;;;;;;;;5105000;28;42057;-70
2023/07/19 02:52:29;;;;;;;3.75;1.13;;;;;;;;;;5102210;28;40582;-70
2023/07/19 02:54:57;;;;;;;1.80;1.10;;;;;;;;;;5125217;27;41378;-70
2023/07/19 02:57:25;;;;;;;1.40;0.90;;;;;;;;;;5106405;28;39337;-71
2023/07/19 02:59:53;;;;;;;2.95;1.50;;;;;;;;;;5104883;28;41554;-72
2023/07/19 03:02:21;;;;;;;4.35;1.45;;;;;;;;;;5102391;28;43442;-72
2023/07/19 03:04:53;;;;;;;1.67;1.00;;;;;;;;;;5107380;28;38916;-71
2023/07/19 03:07:21;;;;;;;1.52;1.00;;;;;;;;;;5108526;28;42609;-72
2023/07/19 03:09:49;;;;;;;2.28;1.10;;;;;;;;;;5105946;28;42932;-72
2023/07/19 03:12:18;;;;;;;1.83;1.00;;;;;;;;;;5103719;27;40178;-71
2023/07/19 03:14:46;;;;;;;2.35;0.98;;;;;;;;;;5106450;28;42839;-71
2023/07/19 03:17:14;;;;;;;1.17;0.90;;;;;;;;;;5100626;28;40288;-72
2023/07/19 03:19:42;;;;;;;1.30;1.10;;;;;;;;;;5104606;27;42803;-71
2023/07/19 03:22:11;;;;;;;2.10;1.00;;;;;;;;;;5104388;28;41975;-72
2023/07/19 03:24:39;;;;;;;2.00;1.00;;;;;;;;;;5105011;28;40841;-71
2023/07/19 03:27:07;;;;;;;1.77;1.00;;;;;;;;;;5106139;28;41620;-71
2023/07/19 03:29:36;;;;;;;3.10;0.98;;;;;;;;;;5102237;28;42732;-71
2023/07/19 03:32:05;;;;;;;2.83;1.35;;;;;;;;;;5099425;28;38893;-71
2023/07/19 03:34:34;;;;;;;1.55;1.17;;;;;;;;;;5097724;28;41696;-71
2023/07/19 03:37:02;;;;;;;1.40;0.90;;;;;;;;;;5103001;28;40448;-71
2023/07/19 03:39:31;;;;;;;1.58;0.93;;;;;;;;;;5103924;28;41351;-72
2023/07/19 03:41:59;;;;;;;2.03;0.85;;;;;;;;;;5116736;27;40736;-71
2023/07/19 03:44:27;;;;;;;2.30;1.00;;;;;;;;;;5100323;27;39012;-71
2023/07/19 03:46:55;;;;;;;1.80;1.10;;;;;;;;;;5099915;28;42188;-71
2023/07/19 03:49:26;;;;;;;2.00;1.13;;;;;;;;;;5096754;28;40639;-71
2023/07/19 03:51:54;;;;;;;2.25;1.17;;;;;;;;;;5113626;27;39457;-71
2023/07/19 03:54:23;;;;;;;3.15;0.95;;;;;;;;;;5098407;28;42172;-71
2023/07/19 03:56:52;;;;;;;1.88;1.00;;;;;;;;;;5100389;28;42874;-71
2023/07/19 03:59:20;;;;;;;1.25;1.10;;;;;;;;;;5089455;28;41327;-71
2023/07/19 04:01:48;;;;;;;2.47;1.10;;;;;;;;;;5089304;28;42108;-72
2023/07/19 04:04:16;;;;;;;1.63;1.00;;;;;;;;;;5104946;28;41373;-71
2023/07/19 04:06:44;;;;;;;1.45;1.10;;;;;;;;;;5098148;28;41715;-72
2023/07/19 04:09:12;;;;;;;3.00;1.00;;;;;;;;;;5088778;28;43145;-71
2023/07/19 04:11:40;;;;;;;2.75;1.08;;;;;;;;;;5087684;28;41247;-71
2023/07/19 04:14:09;;;;;;;2.95;1.30;;;;;;;;;;5105445;28;42763;-71
2023/07/19 04:16:37;;;;;;;1.85;1.10;;;;;;;;;;5094280;28;41561;-71
2023/07/19 04:19:06;;;;;;;1.73;1.17;;;;;;;;;;5100817;28;41246;-71
2023/07/19 04:21:34;;;;;;;1.58;1.10;;;;;;;;;;5101536;28;40295;-71
2023/07/19 04:24:02;;;;;;;1.42;0.93;;;;;;;;;;5100064;28;40085;-71
2023/07/19 04:26:31;;;;;;;1.85;1.00;;;;;;;;;;5110174;27;41470;-71
2023/07/19 04:28:59;;;;;;;1.90;1.00;;;;;;;;;;5096674;28;42484;-71
2023/07/19 04:31:29;;;;;;;1.85;0.93;;;;;;;;;;5102962;28;38865;-71
2023/07/19 04:33:57;;;;;;;2.25;1.20;;;;;;;;;;5104097;28;42260;-71
2023/07/19 04:36:25;;;;;;;1.50;0.80;;;;;;;;;;5103246;27;42036;-71
2023/07/19 04:38:53;;;;;;;2.42;1.10;;;;;;;;;;5118506;27;38859;-71
2023/07/19 04:41:21;;;;;;;1.50;1.00;;;;;;;;;;5107051;28;40989;-71
2023/07/19 04:43:49;;;;;;;1.58;1.05;;;;;;;;;;5107484;28;31929;-70
2023/07/19 04:46:20;;;;;;;1.85;1.15;;;;;;;;;;5107647;28;42289;-71
2023/07/19 04:48:49;;;;;;;1.25;1.15;;;;;;;;;;5107815;28;40898;-71
2023/07/19 04:51:17;;;;;;;1.85;1.30;;;;;;;;;;5106899;28;39728;-71
2023/07/19 04:53:48;;;;;;;1.65;1.10;;;;;;;;;;5103256;28;40369;-71
2023/07/19 04:56:16;;;;;;;1.15;1.00;;;;;;;;;;5107769;27;40828;-71
2023/07/19 04:58:45;;;;;;;2.17;1.20;;;;;;;;;;5095268;28;38957;-71
2023/07/19 05:01:13;;;;;;;2.80;1.13;;;;;;;;;;5095151;28;41905;-71
2023/07/19 05:03:42;;;;;;;1.20;0.95;;;;;;;;;;5102022;28;42235;-71
2023/07/19 05:06:11;;;;;;;1.38;1.08;;;;;;;;;;5088440;28;42770;-71
2023/07/19 05:08:39;;;;;;;2.90;0.95;;;;;;;;;;5085703;28;41208;-70
2023/07/19 05:11:07;;;;;;;1.15;0.93;;;;;;;;;;5086432;28;39041;-71
2023/07/19 05:13:35;;;;;;;2.42;1.08;;;;;;;;;;5098197;28;42547;-71
2023/07/19 05:16:04;;;;;;;1.27;0.70;;;;;;;;;;5107373;28;41559;-71
2023/07/19 05:18:32;;;;;;;2.72;1.25;;;;;;;;;;5106557;28;39165;-71
2023/07/19 05:21:01;;;;;;;1.83;1.20;;;;;;;;;;5105499;28;41417;-71
2023/07/19 05:23:30;;;;;;;0.85;0.80;;;;;;;;;;5106165;28;40758;-71
2023/07/19 05:25:59;;;;;;;1.77;1.00;;;;;;;;;;5108983;27;39954;-71
2023/07/19 05:28:26;;;;;;;1.20;0.90;;;;;;;;;;5100563;27;42328;-71
2023/07/19 05:30:54;;;;;;;1.63;1.00;;;;;;;;;;5097904;27;40827;-70
2023/07/19 05:33:22;;;;;;;1.17;0.82;;;;;;;;;;5099168;27;42082;-71
2023/07/19 05:35:50;;;;;;;1.73;1.30;;;;;;;;;;5088376;27;41941;-71
2023/07/19 05:38:18;;;;;;;2.47;1.10;;;;;;;;;;5088848;28;41014;-71
2023/07/19 05:40:48;;;;;;;2.15;1.10;;;;;;;;;;5087943;28;42650;-71
2023/07/19 05:43:16;;;;;;;1.65;1.00;;;;;;;;;;5106777;27;42137;-71
2023/07/19 05:45:44;;;;;;;2.40;1.15;;;;;;;;;;5108225;27;41387;-71
2023/07/19 05:48:12;;;;;;;1.58;0.93;;;;;;;;;;5108455;27;41837;-71
2023/07/19 05:50:40;;;;;;;2.45;1.27;;;;;;;;;;5106832;27;41073;-71
2023/07/19 05:53:08;;;;;;;1.42;1.00;;;;;;;;;;5107673;27;41817;-71
2023/07/19 05:55:36;;;;;;;1.80;1.20;;;;;;;;;;5107616;27;43095;-71
2023/07/19 05:58:06;;;;;;;1.60;1.00;;;;;;;;;;5107123;27;40377;-71
2023/07/19 06:00:34;;;;;;;1.60;1.20;;;;;;;;;;5107079;27;42556;-71
2023/07/19 06:03:02;;;;;;;1.70;1.17;;;;;;;;;;5096417;27;42116;-72
2023/07/19 06:05:30;;;;;;;1.05;0.93;;;;;;;;;;5092003;28;41311;-71
2023/07/19 06:07:58;;;;;;;3.30;1.77;;;;;;;;;;5086762;28;41878;-69
2023/07/19 06:10:45;;;;;;;7.03;2.13;;;;;;;;;;5087450;28;42125;-70
2023/07/19 06:13:14;;;;;;;9.15;2.53;;;;;;;;;;5105800;28;42542;-69
2023/07/19 06:15:42;;;;;;;6.60;3.80;;;;;;;;;;5105038;27;42016;-73
2023/07/19 06:18:10;;;;;;;7.82;4.57;;;;;;;;;;5102945;28;40442;-68
2023/07/19 06:20:38;;;;;;;8.20;4.30;;;;;;;;;;5096162;28;41812;-68
2023/07/19 06:23:06;;;;;;;8.30;4.20;;;;;;;;;;5096701;27;41751;-69
2023/07/19 06:25:35;;;;;;;11.93;4.78;;;;;;;;;;5094550;28;41395;-71
2023/07/19 06:28:03;;;;;;;6.00;3.45;;;;;;;;;;5099022;27;41772;-69
2023/07/19 06:30:32;;;;;;;8.30;3.53;;;;;;;;;;5096879;27;42171;-69
2023/07/19 06:33:00;;;;;;;7.47;3.60;;;;;;;;;;5096808;27;39870;-69
2023/07/19 06:35:33;;;;;;;8.43;3.80;;;;;;;;;;5086588;28;42456;-68
2023/07/19 06:38:01;;;;;;;6.55;3.35;;;;;;;;;;5086360;28;41777;-69
2023/07/19 06:40:31;;;;;;;11.52;3.72;;;;;;;;;;5096804;28;41967;-69
2023/07/19 06:42:59;;;;;;;9.05;3.58;;;;;;;;;;5106917;27;41594;-68
2023/07/19 06:45:27;;;;;;;9.50;3.45;;;;;;;;;;5106394;27;40714;-69
2023/07/19 06:47:56;;;;;;;5.78;3.38;;;;;;;;;;5107415;27;41595;-70
2023/07/19 06:50:24;;;;;;;6.53;3.25;;;;;;;;;;5098716;27;43166;-69
2023/07/19 06:52:53;;;;;;;5.93;3.22;;;;;;;;;;5107416;27;42270;-69
2023/07/19 06:55:20;;;;;;;4.10;2.88;;;;;;;;;;5103045;27;41748;-68
2023/07/19 06:57:48;;;;;;;6.45;3.10;;;;;;;;;;5091472;28;39915;-68
2023/07/19 07:00:17;;;;;;;6.95;3.17;;;;;;;;;;5100333;28;41861;-68
2023/07/19 07:02:46;;;;;;;6.25;2.90;;;;;;;;;;5105896;27;42694;-69
2023/07/19 07:05:16;;;;;;;5.30;2.60;;;;;;;;;;5106903;27;40262;-68
2023/07/19 07:07:44;;;;;;;5.63;2.70;;;;;;;;;;5106631;27;41821;-68
2023/07/19 07:10:12;;;;;;;4.93;2.60;;;;;;;;;;5099520;27;42677;-68
2023/07/19 07:12:42;;;;;;;4.45;2.33;;;;;;;;;;5104424;27;39778;-68
2023/07/19 07:15:10;;;;;;;7.32;2.60;;;;;;;;;;5102688;28;40243;-68
2023/07/19 07:17:40;;;;;;;6.30;2.65;;;;;;;;;;5104880;27;40828;-68
2023/07/19 07:20:08;;;;;;;4.93;2.53;;;;;;;;;;5100847;27;41723;-68
2023/07/19 07:22:38;;;;;;;5.38;2.47;;;;;;;;;;5099298;28;42524;-69
2023/07/19 07:25:06;;;;;;;5.82;2.13;;;;;;;;;;5108171;27;40262;-68
2023/07/19 07:27:34;;;;;;;4.20;2.05;;;;;;;;;;5109252;27;41803;-69
2023/07/19 07:30:02;;;;;;;2.80;1.88;;;;;;;;;;5108969;27;41593;-69
2023/07/19 07:32:30;;;;;;;3.30;1.80;;;;;;;;;;5099856;27;40539;-68
2023/07/19 07:34:58;;;;;;;3.92;2.10;;;;;;;;;;5091737;27;41611;-69
2023/07/19 07:37:26;;;;;;;3.78;1.50;;;;;;;;;;5101020;27;42601;-68
2023/07/19 07:39:56;;;;;;;5.25;1.95;;;;;;;;;;5103539;27;40937;-68
2023/07/19 07:42:24;;;;;;;4.07;1.58;;;;;;;;;;5108842;27;42094;-67
2023/07/19 07:44:52;;;;;;;4.18;1.77;;;;;;;;;;5110209;27;40354;-66
2023/07/19 07:47:20;;;;;;;7.38;1.73;;;;;;;;;;5109917;27;41679;-65
2023/07/19 07:49:48;;;;;;;7.97;1.98;;;;;;;;;;5109542;27;43210;-70
2023/07/19 07:52:16;;;;;;;6.68;1.77;;;;;;;;;;5109647;27;39961;-70
2023/07/19 07:54:44;;;;;;;13.32;2.08;;;;;;;;;;5110221;27;42638;-70
2023/07/19 07:57:14;;;;;;;2.67;1.60;;;;;;;;;;5109156;27;42096;-71
2023/07/19 07:59:42;;;;;;;5.50;1.90;;;;;;;;;;5109977;27;40340;-69
2023/07/19 08:02:10;;;;;;;4.85;1.90;;;;;;;;;;5109696;27;43251;-69
2023/07/19 08:04:38;;;;;;;5.28;2.10;;;;;;;;;;5108788;27;40457;-72
2023/07/19 08:07:06;;;;;;;4.40;1.95;;;;;;;;;;5109660;27;42623;-68
2023/07/19 08:09:34;;;;;;;6.80;2.10;;;;;;;;;;5108250;27;42028;-68
2023/07/19 08:12:02;;;;;;;3.53;1.85;;;;;;;;;;5109368;27;39904;-68
2023/07/19 08:14:32;;;;;;;7.88;2.17;;;;;;;;;;5108644;27;42130;-71
2023/07/19 08:17:00;;;;;;;4.13;1.92;;;;;;;;;;5108738;27;42150;-71
2023/07/19 08:19:30;;;;;;;4.60;1.90;;;;;;;;;;5108136;27;41650;-69
2023/07/19 08:21:59;;;;;;;9.70;1.98;;;;;;;;;;5110175;27;41477;-70
2023/07/19 08:24:27;;;;;;;9.10;2.05;;;;;;;;;;5108122;27;39926;-70
2023/07/19 08:26:55;;;;;;;6.28;2.28;;;;;;;;;;5110123;27;41794;-71
2023/07/19 08:29:23;;;;;;;7.90;2.25;;;;;;;;;;5107168;27;41741;-70
2023/07/19 08:31:53;;;;;;;7.38;1.90;;;;;;;;;;5108794;27;42332;-70
2023/07/19 08:34:21;;;;;;;4.90;1.90;;;;;;;;;;5108458;27;42198;-68
2023/07/19 08:36:49;;;;;;;3.20;1.83;;;;;;;;;;5089074;28;42263;-69
2023/07/19 08:39:17;;;;;;;7.60;1.70;;;;;;;;;;5092522;28;39835;-68
2023/07/19 08:41:45;;;;;;;4.13;1.80;;;;;;;;;;5109074;27;42563;-68
2023/07/19 08:44:13;;;;;;;4.82;2.10;;;;;;;;;;5109091;27;43159;-68
2023/07/19 08:46:41;;;;;;;5.53;2.60;;;;;;;;;;5104378;27;42674;-69
2023/07/19 08:49:10;;;;;;;6.15;2.00;;;;;;;;;;5100721;28;41783;-69
2023/07/19 08:51:39;;;;;;;5.30;2.10;;;;;;;;;;5096256;27;39903;-70
2023/07/19 08:54:08;;;;;;;6.55;1.95;;;;;;;;;;5087941;28;41507;-70
2023/07/19 08:56:36;;;;;;;12.77;2.65;;;;;;;;;;5087799;28;42033;-70
2023/07/19 08:59:04;;;;;;;5.28;2.10;;;;;;;;;;5090324;28;40513;-70
2023/07/19 09:01:32;;;;;;;7.13;2.58;;;;;;;;;;5108087;27;41842;-71
2023/07/19 09:04:00;;;;;;;10.70;2.10;;;;;;;;;;5109239;27;42039;-68
2023/07/19 09:06:30;;;;;;;4.43;2.05;;;;;;;;;;5107847;27;41609;-69
2023/07/19 09:08:59;;;;;;;6.20;2.28;;;;;;;;;;5108583;27;42042;-69
2023/07/19 09:11:27;;;;;;;5.47;2.28;;;;;;;;;;5108080;27;40241;-69
2023/07/19 09:13:56;;;;;;;6.30;2.30;;;;;;;;;;5107922;27;41223;-69
2023/07/19 09:16:26;;;;;;;6.45;2.10;;;;;;;;;;5108406;27;42778;-69
2023/07/19 09:18:54;;;;;;;7.30;2.15;;;;;;;;;;5108355;27;40928;-70
2023/07/19 09:21:33;;;;;;;4.07;1.73;;;;;;;;;;5107230;27;41661;-68
2023/07/19 09:24:03;;;;;;;5.97;1.90;;;;;;;;;;5108574;27;42147;-69
2023/07/19 09:26:43;;;;;;;6.55;1.90;;;;;;;;;;5108351;27;40409;-69
2023/07/19 09:29:12;;;;;;;6.65;1.77;;;;;;;;;;5108123;27;45124;-69
2023/07/19 09:31:53;;;;;;;6.78;2.28;;;;;;;;;;5106815;27;40220;-69
2023/07/19 09:34:22;;;;;;;5.53;1.80;;;;;;;;;;5106899;27;41257;-69
2023/07/19 09:36:52;;;;;;;5.05;1.80;;;;;;;;;;5108369;27;42180;-69
2023/07/19 09:39:20;;;;;;;3.63;1.90;;;;;;;;;;5107533;27;40946;-66
2023/07/19 09:41:48;;;;;;;6.13;1.90;;;;;;;;;;5106535;27;41586;-67
2023/07/19 09:44:16;;;;;;;9.20;1.70;;;;;;;;;;5108145;27;42188;-68
2023/07/19 09:46:45;;;;;;;4.32;1.45;;;;;;;;;;5108391;27;41497;-67
2023/07/19 09:49:13;;;;;;;3.50;1.40;;;;;;;;;;5108086;27;42272;-68
2023/07/19 09:51:42;;;;;;;5.03;1.98;;;;;;;;;;5107743;27;40220;-68
2023/07/19 09:54:11;;;;;;;4.47;1.60;;;;;;;;;;5107877;27;42153;-67
2023/07/19 09:56:40;;;;;;;4.18;1.67;;;;;;;;;;5106393;27;42835;-67
2023/07/19 09:59:09;;;;;;;6.05;1.92;;;;;;;;;;5107948;27;40180;-68
2023/07/19 10:01:37;;;;;;;2.72;1.58;;;;;;;;;;5107526;27;42556;-68
2023/07/19 10:04:20;;;;;;;4.72;1.58;;;;;;;;;;5107664;27;42208;-68
2023/07/19 10:06:48;;;;;;;5.60;1.80;;;;;;;;;;5108143;27;41332;-68
2023/07/19 10:09:33;;;;;;;5.85;1.83;;;;;;;;;;5107400;27;41567;-67
2023/07/19 10:12:01;;;;;;;4.45;2.00;;;;;;;;;;5108142;27;43567;-67
2023/07/19 10:14:29;;;;;;;7.07;1.90;;;;;;;;;;5107502;27;41286;-67
2023/07/19 10:17:03;;;;;;;6.70;1.88;;;;;;;;;;5107209;27;42099;-67
2023/07/19 10:19:32;;;;;;;3.30;1.52;;;;;;;;;;5107065;27;40545;-67
2023/07/19 10:22:02;;;;;;;5.43;1.70;;;;;;;;;;5108556;27;42259;-68
2023/07/19 10:24:30;;;;;;;6.15;2.17;;;;;;;;;;5106708;27;43086;-67
2023/07/19 10:27:03;;;;;;;6.00;1.98;;;;;;;;;;5108281;27;40877;-67
2023/07/19 10:29:43;;;;;;;5.15;1.80;;;;;;;;;;5106692;27;41901;-68
2023/07/19 10:32:11;;;;;;;5.00;1.75;;;;;;;;;;5106907;27;42145;-67
2023/07/19 10:34:39;;;;;;;5.20;2.08;;;;;;;;;;5107083;27;40584;-68
2023/07/19 10:37:13;;;;;;;2.78;1.63;;;;;;;;;;5107440;27;42063;-67
2023/07/19 10:39:41;;;;;;;2.30;1.70;;;;;;;;;;5106586;27;40804;-67
2023/07/19 10:42:11;;;;;;;3.03;1.38;;;;;;;;;;5098524;27;42656;-67
2023/07/19 10:44:38;;;;;;;4.55;1.70;;;;;;;;;;5094501;27;43123;-68
2023/07/19 10:47:07;;;;;;;6.32;1.92;;;;;;;;;;5092333;28;40441;-67
2023/07/19 10:49:35;;;;;;;5.13;1.73;;;;;;;;;;5097654;27;41675;-66
2023/07/19 10:52:03;;;;;;;5.30;2.22;;;;;;;;;;5096728;27;43091;-67
2023/07/19 10:54:31;;;;;;;6.03;2.22;;;;;;;;;;5109991;27;40334;-67
2023/07/19 10:57:21;;;;;;;7.60;2.05;;;;;;;;;;5111552;27;43175;-67
2023/07/19 10:59:50;;;;;;;5.20;2.08;;;;;;;;;;5109870;27;40886;-67
2023/07/19 11:02:18;;;;;;;3.55;1.85;;;;;;;;;;5109667;27;41689;-67
2023/07/19 11:04:46;;;;;;;4.50;1.88;;;;;;;;;;5090860;28;43449;-67
2023/07/19 11:07:18;;;;;;;6.35;2.20;;;;;;;;;;5089711;28;40565;-66
2023/07/19 11:09:49;;;;;;;8.25;3.10;;;;;;;;;;5090602;28;42318;-67
2023/07/19 11:12:17;;;;;;;7.53;2.80;;;;;;;;;;5092143;28;43486;-67
2023/07/19 11:14:54;;;;;;;8.30;3.10;;;;;;;;;;5109821;28;40425;-67
2023/07/19 11:17:25;;;;;;;6.35;3.10;;;;;;;;;;5111279;27;41510;-68
2023/07/19 11:19:54;;;;;;;13.27;3.90;;;;;;;;;;5109753;27;41490;-68
2023/07/19 11:22:22;;;;;;;8.38;3.85;;;;;;;;;;5099553;28;41603;-69
2023/07/19 11:24:51;;;;;;;9.52;3.88;;;;;;;;;;5097918;28;42376;-66
2023/07/19 11:27:19;;;;;;;9.48;3.25;;;;;;;;;;5088321;28;41977;-68
2023/07/19 11:29:50;;;;;;;9.55;3.40;;;;;;;;;;5089033;28;42059;-68
2023/07/19 11:32:18;;;;;;;6.85;3.63;;;;;;;;;;5089511;28;42284;-67
2023/07/19 11:34:47;;;;;;;6.35;3.25;;;;;;;;;;5107561;28;40504;-67
2023/07/19 11:37:17;;;;;;;5.13;2.75;;;;;;;;;;5111733;27;20224;-69
2023/07/19 11:39:45;;;;;;;4.45;2.97;;;;;;;;;;5110725;27;41651;-68
2023/07/19 11:42:13;;;;;;;9.07;3.03;;;;;;;;;;5110343;27;41236;-68
2023/07/19 11:44:44;;;;;;;4.53;3.00;;;;;;;;;;5103346;27;41859;-67
2023/07/19 11:47:13;;;;;;;6.85;3.13;;;;;;;;;;5089705;28;40218;-74
2023/07/19 11:49:41;;;;;;;8.50;3.47;;;;;;;;;;5088519;28;41474;-72
2023/07/19 11:52:10;;;;;;;7.03;3.00;;;;;;;;;;5090485;28;42806;-75
2023/07/19 11:54:38;;;;;;;3.78;2.53;;;;;;;;;;5105179;28;41337;-74
2023/07/19 11:57:06;;;;;;;8.23;3.55;;;;;;;;;;5111220;27;41648;-75
2023/07/19 11:59:34;;;;;;;9.50;3.33;;;;;;;;;;5109369;27;43104;-71
2023/07/19 12:02:02;;;;;;;7.32;3.25;;;;;;;;;;5110735;27;40313;-73
2023/07/19 12:04:31;;;;;;;6.03;3.40;;;;;;;;;;5103659;27;41538;-73
2023/07/19 12:06:59;;;;;;;6.97;4.18;;;;;;;;;;5101319;27;40459;-73
2023/07/19 12:09:27;;;;;;;5.15;2.92;;;;;;;;;;5108947;27;41920;-73
2023/07/19 12:11:55;;;;;;;5.63;3.15;;;;;;;;;;5109950;27;41808;-72
2023/07/19 12:14:23;;;;;;;8.82;4.03;;;;;;;;;;5108115;27;41132;-73
2023/07/19 12:16:55;;;;;;;5.57;3.28;;;;;;;;;;5106006;27;42533;-73
2023/07/19 12:19:24;;;;;;;7.50;4.22;;;;;;;;;;5097155;28;42275;-73
2023/07/19 12:21:53;;;;;;;7.63;4.22;;;;;;;;;;5098914;27;40802;-73
2023/07/19 12:24:22;;;;;;;9.02;4.22;;;;;;;;;;5101909;28;41635;-73
2023/07/19 12:26:51;;;;;;;4.78;3.88;;;;;;;;;;5109816;27;39883;-73
2023/07/19 12:29:19;;;;;;;6.32;3.67;;;;;;;;;;5108149;27;41459;-72
2023/07/19 12:31:47;;;;;;;6.28;3.55;;;;;;;;;;5108568;27;42176;-73
2023/07/19 12:34:15;;;;;;;4.15;2.80;;;;;;;;;;5108135;27;40458;-72
2023/07/19 12:36:43;;;;;;;8.65;3.55;;;;;;;;;;5108407;27;42200;-72
2023/07/19 12:39:12;;;;;;;7.38;3.28;;;;;;;;;;5108091;27;41611;-72
2023/07/19 12:41:40;;;;;;;7.05;3.30;;;;;;;;;;5107515;27;41908;-72
2023/07/19 12:44:08;;;;;;;6.82;2.92;;;;;;;;;;5107931;27;41106;-73
2023/07/19 12:46:36;;;;;;;7.07;2.67;;;;;;;;;;5108151;27;42019;-72
2023/07/19 12:49:04;;;;;;;5.05;2.75;;;;;;;;;;5102312;27;42706;-75
2023/07/19 12:51:32;;;;;;;7.70;3.00;;;;;;;;;;5094522;27;42184;-72
2023/07/19 12:54:00;;;;;;;10.23;3.05;;;;;;;;;;5093180;27;40097;-74
2023/07/19 12:56:29;;;;;;;5.90;2.50;;;;;;;;;;5087476;28;42032;-71
2023/07/19 12:58:57;;;;;;;12.80;3.60;;;;;;;;;;5087189;28;42429;-73
2023/07/19 13:01:25;;;;;;;6.93;2.83;;;;;;;;;;5101881;28;41120;-74
2023/07/19 13:03:53;;;;;;;5.57;2.72;;;;;;;;;;5107383;27;42295;-72
2023/07/19 13:06:21;;;;;;;4.85;2.70;;;;;;;;;;5106970;27;42293;-73
2023/07/19 13:08:50;;;;;;;7.30;2.50;;;;;;;;;;5103637;27;41350;-74
2023/07/19 13:11:18;;;;;;;5.57;2.92;;;;;;;;;;5097975;28;42910;-74
2023/07/19 13:13:47;;;;;;;7.20;3.00;;;;;;;;;;5104981;28;40164;-74
2023/07/19 13:16:17;;;;;;;5.53;2.75;;;;;;;;;;5107736;27;41570;-75
2023/07/19 13:18:46;;;;;;;5.78;3.03;;;;;;;;;;5107368;27;43135;-75
2023/07/19 13:21:14;;;;;;;6.28;2.83;;;;;;;;;;5106257;27;40144;-75
2023/07/19 13:23:43;;;;;;;6.00;2.75;;;;;;;;;;5107831;27;41609;-75
2023/07/19 13:26:11;;;;;;;7.90;3.08;;;;;;;;;;5106744;27;42458;-75
2023/07/19 13:28:40;;;;;;;5.38;3.13;;;;;;;;;;5107622;27;41110;-75
2023/07/19 13:31:09;;;;;;;5.85;2.75;;;;;;;;;;5107271;27;43138;-75
2023/07/19 13:33:37;;;;;;;6.75;2.95;;;;;;;;;;5106087;27;40324;-75
2023/07/19 13:36:05;;;;;;;3.83;1.90;;;;;;;;;;5107106;27;41603;-75
2023/07/19 13:38:52;;;;;;;5.38;2.20;;;;;;;;;;5101534;27;41927;-74
2023/07/19 13:41:20;;;;;;;7.20;2.40;;;;;;;;;;5106670;27;41016;-75
2023/07/19 13:43:48;;;;;;;8.77;2.13;;;;;;;;;;5107760;27;42167;-76
2023/07/19 13:46:17;;;;;;;6.82;2.28;;;;;;;;;;5107273;27;41635;-71
2023/07/19 13:48:46;;;;;;;8.52;2.55;;;;;;;;;;5107347;27;40237;-71
2023/07/19 13:51:14;;;;;;;7.05;2.47;;;;;;;;;;5107596;27;42778;-71
2023/07/19 13:53:42;;;;;;;8.02;2.55;;;;;;;;;;5106764;27;40405;-73
2023/07/19 13:56:10;;;;;;;5.50;2.72;;;;;;;;;;5106699;27;42281;-72
2023/07/19 13:58:39;;;;;;;9.98;2.88;;;;;;;;;;5107164;27;42022;-72
2023/07/19 14:01:07;;;;;;;6.82;2.45;;;;;;;;;;5106559;27;40616;-72
2023/07/19 14:03:36;;;;;;;6.13;2.85;;;;;;;;;;5106536;27;41897;-72
2023/07/19 14:06:04;;;;;;;5.90;2.65;;;;;;;;;;5106851;27;43340;-72
2023/07/19 14:08:32;;;;;;;5.78;2.60;;;;;;;;;;5097066;27;40899;-74
2023/07/19 14:11:00;;;;;;;3.75;2.28;;;;;;;;;;5097570;27;41571;-75
2023/07/19 14:13:28;;;;;;;9.95;2.92;;;;;;;;;;5101020;28;41931;-74
2023/07/19 14:16:00;;;;;;;10.13;3.40;;;;;;;;;;5104521;27;41754;-72
2023/07/19 14:18:31;;;;;;;7.88;3.60;;;;;;;;;;5096751;28;42288;-72
2023/07/19 14:21:00;;;;;;;12.80;2.92;;;;;;;;;;5082595;27;40110;-69
2023/07/19 14:23:37;;;;;;;7.50;3.08;;;;;;;;;;5099763;27;41671;-70
2023/07/19 14:26:05;;;;;;;5.80;2.95;;;;;;;;;;5103115;28;41713;-69
2023/07/19 14:28:33;;;;;;;4.70;2.42;;;;;;;;;;5101772;28;40340;-69
2023/07/19 14:31:01;;;;;;;3.55;2.63;;;;;;;;;;5101586;27;42202;-69
2023/07/19 14:33:30;;;;;;;3.50;2.63;;;;;;;;;;5102007;27;43199;-69
2023/07/19 14:35:58;;;;;;;7.88;3.17;;;;;;;;;;5100342;27;40372;-68
2023/07/19 14:38:29;;;;;;;5.63;3.03;;;;;;;;;;5102425;27;41798;-69
2023/07/19 14:40:58;;;;;;;6.68;2.95;;;;;;;;;;5102206;28;40807;-69
2023/07/19 14:43:26;;;;;;;5.47;2.53;;;;;;;;;;5100619;27;41633;-69
2023/07/19 14:45:54;;;;;;;2.97;2.30;;;;;;;;;;5102908;28;41931;-69
2023/07/19 14:48:23;;;;;;;3.90;2.50;;;;;;;;;;5105778;27;41132;-67
2023/07/19 14:50:52;;;;;;;5.88;2.40;;;;;;;;;;5106296;27;41666;-67
2023/07/19 14:53:23;;;;;;;4.57;2.10;;;;;;;;;;5105533;27;42120;-67